sensor_id;sensor_type;location;lat;lon;timestamp;temperature;humidity
23813;DHT22;12087;45.190;5.688;2024-03-08T00:03:29;8.10;99.90
23813;DHT22;12087;45.190;5.688;2024-03-08T00:08:54;8.20;99.90
23813;DHT22;12087;45.190;5.688;2024-03-08T00:14:16;8.20;99.90
23813;DHT22;12087;45.190;5.688;2024-03-08T00:19:39;8.20;99.90
23813;DHT22;12087;45.190;5.688;2024-03-08T00:25:04;8.30;99.90
23813;DHT22;12087;45.190;5.688;2024-03-08T00:30:27;8.30;99.90
23813;DHT22;12087;45.190;5.688;2024-03-08T00:35:49;8.30;99.90
23813;DHT22;12087;45.190;5.688;2024-03-08T00:41:13;8.20;99.90
23813;DHT22;12087;45.190;5.688;2024-03-08T00:46:35;8.20;99.90
23813;DHT22;12087;45.190;5.688;2024-03-08T00:51:58;8.20;99.90
23813;DHT22;12087;45.190;5.688;2024-03-08T00:57:22;8.10;99.90
23813;DHT22;12087;45.190;5.688;2024-03-08T01:02:44;8.10;99.90
23813;DHT22;12087;45.190;5.688;2024-03-08T01:08:06;8.00;99.90
23813;DHT22;12087;45.190;5.688;2024-03-08T01:13:31;7.90;99.90
23813;DHT22;12087;45.190;5.688;2024-03-08T01:18:53;7.90;99.90
23813;DHT22;12087;45.190;5.688;2024-03-08T01:24:16;7.80;99.90
23813;DHT22;12087;45.190;5.688;2024-03-08T01:29:39;7.80;99.90
23813;DHT22;12087;45.190;5.688;2024-03-08T01:35:02;7.80;99.90
23813;DHT22;12087;45.190;5.688;2024-03-08T01:40:24;7.70;99.90
23813;DHT22;12087;45.190;5.688;2024-03-08T01:45:48;7.70;99.90
23813;DHT22;12087;45.190;5.688;2024-03-08T01:51:11;7.60;99.90
23813;DHT22;12087;45.190;5.688;2024-03-08T01:56:36;7.60;99.90
23813;DHT22;12087;45.190;5.688;2024-03-08T02:02:01;7.60;99.90
23813;DHT22;12087;45.190;5.688;2024-03-08T02:07:24;7.60;99.90
23813;DHT22;12087;45.190;5.688;2024-03-08T02:12:46;7.50;99.90
23813;DHT22;12087;45.190;5.688;2024-03-08T02:18:10;7.50;99.90
23813;DHT22;12087;45.190;5.688;2024-03-08T02:23:34;7.50;99.90
23813;DHT22;12087;45.190;5.688;2024-03-08T02:28:56;7.30;99.90
23813;DHT22;12087;45.190;5.688;2024-03-08T02:34:18;7.20;99.90
23813;DHT22;12087;45.190;5.688;2024-03-08T02:39:42;7.10;99.90
23813;DHT22;12087;45.190;5.688;2024-03-08T02:45:05;7.10;99.90
23813;DHT22;12087;45.190;5.688;2024-03-08T02:50:30;7.10;99.90
23813;DHT22;12087;45.190;5.688;2024-03-08T02:55:54;7.00;99.90
23813;DHT22;12087;45.190;5.688;2024-03-08T03:01:16;7.00;99.90
23813;DHT22;12087;45.190;5.688;2024-03-08T03:06:41;6.90;99.90
23813;DHT22;12087;45.190;5.688;2024-03-08T03:12:04;6.90;99.90
23813;DHT22;12087;45.190;5.688;2024-03-08T03:17:29;6.80;99.90
23813;DHT22;12087;45.190;5.688;2024-03-08T03:22:52;6.80;99.90
23813;DHT22;12087;45.190;5.688;2024-03-08T03:28:15;6.80;99.90
23813;DHT22;12087;45.190;5.688;2024-03-08T03:33:38;6.70;99.90
23813;DHT22;12087;45.190;5.688;2024-03-08T03:39:00;6.70;99.90
23813;DHT22;12087;45.190;5.688;2024-03-08T03:44:32;6.60;99.90
23813;DHT22;12087;45.190;5.688;2024-03-08T03:49:54;6.60;99.90
23813;DHT22;12087;45.190;5.688;2024-03-08T03:55:17;6.60;99.90
23813;DHT22;12087;45.190;5.688;2024-03-08T04:00:41;6.60;99.90
23813;DHT22;12087;45.190;5.688;2024-03-08T04:06:04;6.60;99.90
23813;DHT22;12087;45.190;5.688;2024-03-08T04:11:26;6.50;99.90
23813;DHT22;12087;45.190;5.688;2024-03-08T04:16:50;6.50;99.90
23813;DHT22;12087;45.190;5.688;2024-03-08T04:22:12;6.50;99.90
23813;DHT22;12087;45.190;5.688;2024-03-08T04:27:35;6.60;99.90
23813;DHT22;12087;45.190;5.688;2024-03-08T04:32:59;6.60;99.90
23813;DHT22;12087;45.190;5.688;2024-03-08T04:38:24;6.50;99.90
23813;DHT22;12087;45.190;5.688;2024-03-08T04:43:46;6.40;99.90
23813;DHT22;12087;45.190;5.688;2024-03-08T04:49:10;6.40;99.90
23813;DHT22;12087;45.190;5.688;2024-03-08T04:54:34;6.30;99.90
23813;DHT22;12087;45.190;5.688;2024-03-08T04:59:56;6.30;99.90
23813;DHT22;12087;45.190;5.688;2024-03-08T05:05:20;6.30;99.90
23813;DHT22;12087;45.190;5.688;2024-03-08T05:10:43;6.20;99.90
23813;DHT22;12087;45.190;5.688;2024-03-08T05:16:06;6.20;99.90
23813;DHT22;12087;45.190;5.688;2024-03-08T05:21:30;6.20;99.90
23813;DHT22;12087;45.190;5.688;2024-03-08T05:26:52;6.10;99.90
23813;DHT22;12087;45.190;5.688;2024-03-08T05:32:15;6.10;99.90
23813;DHT22;12087;45.190;5.688;2024-03-08T05:37:38;6.10;99.90
23813;DHT22;12087;45.190;5.688;2024-03-08T05:43:03;6.10;99.90
23813;DHT22;12087;45.190;5.688;2024-03-08T05:48:26;6.10;99.90
23813;DHT22;12087;45.190;5.688;2024-03-08T05:53:50;6.00;99.90
23813;DHT22;12087;45.190;5.688;2024-03-08T05:59:14;6.00;99.90
23813;DHT22;12087;45.190;5.688;2024-03-08T06:04:36;5.90;99.90
23813;DHT22;12087;45.190;5.688;2024-03-08T06:10:00;6.00;99.90
23813;DHT22;12087;45.190;5.688;2024-03-08T06:15:22;6.00;99.90
23813;DHT22;12087;45.190;5.688;2024-03-08T06:20:44;6.00;99.90
23813;DHT22;12087;45.190;5.688;2024-03-08T06:26:08;5.90;99.90
23813;DHT22;12087;45.190;5.688;2024-03-08T06:31:30;6.00;99.90
23813;DHT22;12087;45.190;5.688;2024-03-08T06:36:53;6.00;99.90
23813;DHT22;12087;45.190;5.688;2024-03-08T06:42:22;5.90;99.90
23813;DHT22;12087;45.190;5.688;2024-03-08T06:47:45;5.80;99.90
23813;DHT22;12087;45.190;5.688;2024-03-08T06:53:07;5.90;99.90
23813;DHT22;12087;45.190;5.688;2024-03-08T06:58:31;5.90;99.90
23813;DHT22;12087;45.190;5.688;2024-03-08T07:03:53;5.90;99.90
23813;DHT22;12087;45.190;5.688;2024-03-08T07:09:17;5.90;99.90
23813;DHT22;12087;45.190;5.688;2024-03-08T07:14:41;5.90;99.90
23813;DHT22;12087;45.190;5.688;2024-03-08T07:20:06;6.00;99.90
23813;DHT22;12087;45.190;5.688;2024-03-08T07:25:32;6.10;99.90
23813;DHT22;12087;45.190;5.688;2024-03-08T07:30:57;6.10;99.90
23813;DHT22;12087;45.190;5.688;2024-03-08T07:36:33;6.10;99.90
23813;DHT22;12087;45.190;5.688;2024-03-08T07:41:55;6.30;99.90
23813;DHT22;12087;45.190;5.688;2024-03-08T07:47:19;6.30;99.90
23813;DHT22;12087;45.190;5.688;2024-03-08T07:52:41;6.40;99.90
23813;DHT22;12087;45.190;5.688;2024-03-08T07:58:04;6.40;99.90
23813;DHT22;12087;45.190;5.688;2024-03-08T08:03:28;6.50;99.90
23813;DHT22;12087;45.190;5.688;2024-03-08T08:08:50;6.50;99.90
23813;DHT22;12087;45.190;5.688;2024-03-08T08:14:12;6.60;99.90
23813;DHT22;12087;45.190;5.688;2024-03-08T08:19:36;6.60;99.90
23813;DHT22;12087;45.190;5.688;2024-03-08T08:24:59;6.80;99.90
23813;DHT22;12087;45.190;5.688;2024-03-08T08:30:22;6.90;99.90
23813;DHT22;12087;45.190;5.688;2024-03-08T08:35:46;7.00;99.90
23813;DHT22;12087;45.190;5.688;2024-03-08T08:41:09;7.00;99.90
23813;DHT22;12087;45.190;5.688;2024-03-08T08:46:31;7.10;99.90
23813;DHT22;12087;45.190;5.688;2024-03-08T08:51:55;7.20;99.90
23813;DHT22;12087;45.190;5.688;2024-03-08T08:57:19;7.50;99.90
23813;DHT22;12087;45.190;5.688;2024-03-08T09:02:41;7.70;99.90
23813;DHT22;12087;45.190;5.688;2024-03-08T09:08:06;7.90;99.90
23813;DHT22;12087;45.190;5.688;2024-03-08T09:13:29;8.10;99.90
23813;DHT22;12087;45.190;5.688;2024-03-08T09:18:51;8.20;99.90
23813;DHT22;12087;45.190;5.688;2024-03-08T09:24:15;8.30;99.90
23813;DHT22;12087;45.190;5.688;2024-03-08T09:29:37;8.40;99.90
23813;DHT22;12087;45.190;5.688;2024-03-08T09:35:00;8.50;99.90
23813;DHT22;12087;45.190;5.688;2024-03-08T09:40:24;8.50;99.90
23813;DHT22;12087;45.190;5.688;2024-03-08T09:45:49;8.60;99.90
23813;DHT22;12087;45.190;5.688;2024-03-08T09:51:12;8.80;99.90
23813;DHT22;12087;45.190;5.688;2024-03-08T09:56:39;8.90;99.90
23813;DHT22;12087;45.190;5.688;2024-03-08T10:02:02;8.90;99.90
23813;DHT22;12087;45.190;5.688;2024-03-08T10:07:25;9.00;99.90
23813;DHT22;12087;45.190;5.688;2024-03-08T10:12:49;9.10;99.90
23813;DHT22;12087;45.190;5.688;2024-03-08T10:18:11;9.20;99.90
23813;DHT22;12087;45.190;5.688;2024-03-08T10:23:33;9.20;99.90
23813;DHT22;12087;45.190;5.688;2024-03-08T10:28:57;9.20;99.90
23813;DHT22;12087;45.190;5.688;2024-03-08T10:34:19;9.30;99.90
23813;DHT22;12087;45.190;5.688;2024-03-08T10:39:48;9.40;99.90
23813;DHT22;12087;45.190;5.688;2024-03-08T10:45:23;9.40;99.90
23813;DHT22;12087;45.190;5.688;2024-03-08T10:50:49;9.50;99.90
23813;DHT22;12087;45.190;5.688;2024-03-08T10:56:11;9.50;99.90
23813;DHT22;12087;45.190;5.688;2024-03-08T11:01:36;9.70;99.90
23813;DHT22;12087;45.190;5.688;2024-03-08T11:07:01;9.80;99.90
23813;DHT22;12087;45.190;5.688;2024-03-08T11:12:27;9.80;99.90
23813;DHT22;12087;45.190;5.688;2024-03-08T11:17:52;9.80;99.90
23813;DHT22;12087;45.190;5.688;2024-03-08T11:23:22;9.90;99.90
23813;DHT22;12087;45.190;5.688;2024-03-08T11:28:46;10.00;99.90
23813;DHT22;12087;45.190;5.688;2024-03-08T11:34:16;10.10;99.90
23813;DHT22;12087;45.190;5.688;2024-03-08T11:39:40;10.20;99.90
23813;DHT22;12087;45.190;5.688;2024-03-08T11:45:08;10.30;99.90
23813;DHT22;12087;45.190;5.688;2024-03-08T11:50:33;10.40;99.90
23813;DHT22;12087;45.190;5.688;2024-03-08T11:55:55;10.50;99.90
23813;DHT22;12087;45.190;5.688;2024-03-08T12:01:26;10.50;99.90
23813;DHT22;12087;45.190;5.688;2024-03-08T12:06:50;10.50;99.90
23813;DHT22;12087;45.190;5.688;2024-03-08T12:12:12;10.40;99.90
23813;DHT22;12087;45.190;5.688;2024-03-08T12:17:34;10.50;99.90
23813;DHT22;12087;45.190;5.688;2024-03-08T12:22:59;10.60;99.90
23813;DHT22;12087;45.190;5.688;2024-03-08T12:28:21;10.70;99.90
23813;DHT22;12087;45.190;5.688;2024-03-08T12:33:49;10.70;99.90
23813;DHT22;12087;45.190;5.688;2024-03-08T12:39:13;10.70;99.90
23813;DHT22;12087;45.190;5.688;2024-03-08T12:44:38;10.80;99.90
23813;DHT22;12087;45.190;5.688;2024-03-08T12:50:04;10.90;99.90
23813;DHT22;12087;45.190;5.688;2024-03-08T12:55:30;10.90;99.90
23813;DHT22;12087;45.190;5.688;2024-03-08T13:00:54;11.00;99.90
23813;DHT22;12087;45.190;5.688;2024-03-08T13:06:16;11.10;99.90
23813;DHT22;12087;45.190;5.688;2024-03-08T13:11:41;11.00;99.90
23813;DHT22;12087;45.190;5.688;2024-03-08T13:17:04;11.00;99.90
23813;DHT22;12087;45.190;5.688;2024-03-08T13:22:26;11.00;99.90
23813;DHT22;12087;45.190;5.688;2024-03-08T13:27:50;10.90;99.90
23813;DHT22;12087;45.190;5.688;2024-03-08T13:33:14;10.90;99.90
23813;DHT22;12087;45.190;5.688;2024-03-08T13:38:36;10.80;99.90
23813;DHT22;12087;45.190;5.688;2024-03-08T13:44:00;10.90;99.90
23813;DHT22;12087;45.190;5.688;2024-03-08T13:49:22;10.90;99.90
23813;DHT22;12087;45.190;5.688;2024-03-08T13:54:46;10.90;99.90
23813;DHT22;12087;45.190;5.688;2024-03-08T14:00:11;11.10;99.90
23813;DHT22;12087;45.190;5.688;2024-03-08T14:05:33;11.10;99.90
23813;DHT22;12087;45.190;5.688;2024-03-08T14:10:55;11.20;99.90
23813;DHT22;12087;45.190;5.688;2024-03-08T14:16:19;11.10;99.90
23813;DHT22;12087;45.190;5.688;2024-03-08T14:21:41;11.20;99.90
23813;DHT22;12087;45.190;5.688;2024-03-08T14:27:05;11.50;99.90
23813;DHT22;12087;45.190;5.688;2024-03-08T14:32:30;11.60;99.90
23813;DHT22;12087;45.190;5.688;2024-03-08T14:37:53;11.60;99.90
23813;DHT22;12087;45.190;5.688;2024-03-08T14:43:17;11.70;99.90
23813;DHT22;12087;45.190;5.688;2024-03-08T14:48:43;11.80;99.90
23813;DHT22;12087;45.190;5.688;2024-03-08T14:54:06;11.80;99.90
23813;DHT22;12087;45.190;5.688;2024-03-08T14:59:31;11.80;99.90
23813;DHT22;12087;45.190;5.688;2024-03-08T15:04:55;12.00;99.90
23813;DHT22;12087;45.190;5.688;2024-03-08T15:10:19;12.00;99.90
23813;DHT22;12087;45.190;5.688;2024-03-08T15:15:45;12.10;99.90
23813;DHT22;12087;45.190;5.688;2024-03-08T15:21:09;12.10;99.90
23813;DHT22;12087;45.190;5.688;2024-03-08T15:26:32;12.00;99.90
23813;DHT22;12087;45.190;5.688;2024-03-08T15:31:55;12.00;99.90
23813;DHT22;12087;45.190;5.688;2024-03-08T15:37:19;12.00;99.90
23813;DHT22;12087;45.190;5.688;2024-03-08T15:42:41;11.90;99.90
23813;DHT22;12087;45.190;5.688;2024-03-08T15:48:04;12.00;99.90
23813;DHT22;12087;45.190;5.688;2024-03-08T15:53:27;11.90;99.90
23813;DHT22;12087;45.190;5.688;2024-03-08T15:58:51;11.80;99.90
23813;DHT22;12087;45.190;5.688;2024-03-08T16:04:13;11.70;99.90
23813;DHT22;12087;45.190;5.688;2024-03-08T16:09:37;11.70;99.90
23813;DHT22;12087;45.190;5.688;2024-03-08T16:14:59;11.60;99.90
23813;DHT22;12087;45.190;5.688;2024-03-08T16:20:21;11.50;99.90
23813;DHT22;12087;45.190;5.688;2024-03-08T16:25:46;11.40;99.90
23813;DHT22;12087;45.190;5.688;2024-03-08T16:31:08;11.40;99.90
23813;DHT22;12087;45.190;5.688;2024-03-08T16:36:31;11.30;99.90
23813;DHT22;12087;45.190;5.688;2024-03-08T16:41:54;11.30;99.90
23813;DHT22;12087;45.190;5.688;2024-03-08T16:47:17;11.30;99.90
23813;DHT22;12087;45.190;5.688;2024-03-08T16:52:39;11.20;99.90
23813;DHT22;12087;45.190;5.688;2024-03-08T16:58:03;11.30;99.90
23813;DHT22;12087;45.190;5.688;2024-03-08T17:03:26;11.20;99.90
23813;DHT22;12087;45.190;5.688;2024-03-08T17:08:48;11.20;99.90
23813;DHT22;12087;45.190;5.688;2024-03-08T17:14:12;11.10;99.90
23813;DHT22;12087;45.190;5.688;2024-03-08T17:19:34;11.10;99.90
23813;DHT22;12087;45.190;5.688;2024-03-08T17:24:57;10.90;99.90
23813;DHT22;12087;45.190;5.688;2024-03-08T17:30:21;10.80;99.90
23813;DHT22;12087;45.190;5.688;2024-03-08T17:35:44;10.70;99.90
23813;DHT22;12087;45.190;5.688;2024-03-08T17:41:06;10.60;99.90
23813;DHT22;12087;45.190;5.688;2024-03-08T17:46:30;10.40;99.90
23813;DHT22;12087;45.190;5.688;2024-03-08T17:51:53;10.30;99.90
23813;DHT22;12087;45.190;5.688;2024-03-08T17:57:17;10.20;99.90
23813;DHT22;12087;45.190;5.688;2024-03-08T18:02:41;10.10;99.90
23813;DHT22;12087;45.190;5.688;2024-03-08T18:08:04;10.00;99.90
23813;DHT22;12087;45.190;5.688;2024-03-08T18:13:27;10.00;99.90
23813;DHT22;12087;45.190;5.688;2024-03-08T18:18:54;9.90;99.90
23813;DHT22;12087;45.190;5.688;2024-03-08T18:24:16;10.00;99.90
23813;DHT22;12087;45.190;5.688;2024-03-08T18:29:39;9.90;99.90
23813;DHT22;12087;45.190;5.688;2024-03-08T18:35:03;9.90;99.90
23813;DHT22;12087;45.190;5.688;2024-03-08T18:40:26;9.90;99.90
23813;DHT22;12087;45.190;5.688;2024-03-08T18:45:48;9.90;99.90
23813;DHT22;12087;45.190;5.688;2024-03-08T18:51:12;9.90;99.90
23813;DHT22;12087;45.190;5.688;2024-03-08T18:56:34;9.90;99.90
23813;DHT22;12087;45.190;5.688;2024-03-08T19:01:56;9.90;99.90
23813;DHT22;12087;45.190;5.688;2024-03-08T19:07:21;9.80;99.90
23813;DHT22;12087;45.190;5.688;2024-03-08T19:12:44;9.80;99.90
23813;DHT22;12087;45.190;5.688;2024-03-08T19:18:07;9.70;99.90
23813;DHT22;12087;45.190;5.688;2024-03-08T19:23:32;9.70;99.90
23813;DHT22;12087;45.190;5.688;2024-03-08T19:28:56;9.80;99.90
23813;DHT22;12087;45.190;5.688;2024-03-08T19:34:18;9.80;99.90
23813;DHT22;12087;45.190;5.688;2024-03-08T19:39:46;9.80;99.90
23813;DHT22;12087;45.190;5.688;2024-03-08T19:45:09;9.80;99.90
23813;DHT22;12087;45.190;5.688;2024-03-08T19:50:32;9.70;99.90
23813;DHT22;12087;45.190;5.688;2024-03-08T19:56:00;9.70;99.90
23813;DHT22;12087;45.190;5.688;2024-03-08T20:01:23;9.70;99.90
23813;DHT22;12087;45.190;5.688;2024-03-08T20:06:45;9.60;99.90
23813;DHT22;12087;45.190;5.688;2024-03-08T20:12:09;9.60;99.90
23813;DHT22;12087;45.190;5.688;2024-03-08T20:17:33;9.50;99.90
23813;DHT22;12087;45.190;5.688;2024-03-08T20:22:56;9.50;99.90
23813;DHT22;12087;45.190;5.688;2024-03-08T20:28:20;9.50;99.90
23813;DHT22;12087;45.190;5.688;2024-03-08T20:33:44;9.50;99.90
23813;DHT22;12087;45.190;5.688;2024-03-08T20:39:08;9.50;99.90
23813;DHT22;12087;45.190;5.688;2024-03-08T20:44:32;9.40;99.90
23813;DHT22;12087;45.190;5.688;2024-03-08T20:49:54;9.40;99.90
23813;DHT22;12087;45.190;5.688;2024-03-08T20:55:16;9.40;99.90
23813;DHT22;12087;45.190;5.688;2024-03-08T21:00:44;9.40;99.90
23813;DHT22;12087;45.190;5.688;2024-03-08T21:06:14;9.40;99.90
23813;DHT22;12087;45.190;5.688;2024-03-08T21:11:38;9.50;99.90
23813;DHT22;12087;45.190;5.688;2024-03-08T21:17:02;9.50;99.90
23813;DHT22;12087;45.190;5.688;2024-03-08T21:22:26;9.60;99.90
23813;DHT22;12087;45.190;5.688;2024-03-08T21:27:48;9.50;99.90
23813;DHT22;12087;45.190;5.688;2024-03-08T21:33:13;9.50;99.90
23813;DHT22;12087;45.190;5.688;2024-03-08T21:38:35;9.50;99.90
23813;DHT22;12087;45.190;5.688;2024-03-08T21:43:58;9.50;99.90
23813;DHT22;12087;45.190;5.688;2024-03-08T21:49:22;9.50;99.90
23813;DHT22;12087;45.190;5.688;2024-03-08T21:54:44;9.50;99.90
23813;DHT22;12087;45.190;5.688;2024-03-08T22:00:07;9.40;99.90
23813;DHT22;12087;45.190;5.688;2024-03-08T22:05:33;9.30;99.90
23813;DHT22;12087;45.190;5.688;2024-03-08T22:10:56;9.20;99.90
23813;DHT22;12087;45.190;5.688;2024-03-08T22:16:20;9.20;99.90
23813;DHT22;12087;45.190;5.688;2024-03-08T22:21:43;9.20;99.90
23813;DHT22;12087;45.190;5.688;2024-03-08T22:27:05;9.10;99.90
23813;DHT22;12087;45.190;5.688;2024-03-08T22:32:28;9.10;99.90
23813;DHT22;12087;45.190;5.688;2024-03-08T22:37:51;9.00;99.90
23813;DHT22;12087;45.190;5.688;2024-03-08T22:43:14;8.80;99.90
23813;DHT22;12087;45.190;5.688;2024-03-08T22:48:38;8.80;99.90
23813;DHT22;12087;45.190;5.688;2024-03-08T22:54:03;8.70;99.90
23813;DHT22;12087;45.190;5.688;2024-03-08T22:59:25;8.70;99.90
23813;DHT22;12087;45.190;5.688;2024-03-08T23:04:48;8.70;99.90
23813;DHT22;12087;45.190;5.688;2024-03-08T23:10:11;8.50;99.90
23813;DHT22;12087;45.190;5.688;2024-03-08T23:15:34;8.50;99.90
23813;DHT22;12087;45.190;5.688;2024-03-08T23:20:59;8.40;99.90
23813;DHT22;12087;45.190;5.688;2024-03-08T23:26:25;8.30;99.90
23813;DHT22;12087;45.190;5.688;2024-03-08T23:31:47;8.20;99.90
23813;DHT22;12087;45.190;5.688;2024-03-08T23:37:11;8.10;99.90
23813;DHT22;12087;45.190;5.688;2024-03-08T23:42:34;8.00;99.90
23813;DHT22;12087;45.190;5.688;2024-03-08T23:47:58;8.00;99.90
23813;DHT22;12087;45.190;5.688;2024-03-08T23:53:21;8.20;99.90
23813;DHT22;12087;45.190;5.688;2024-03-08T23:58:45;8.20;99.90
